sensor_id;sensor_type;location;lat;lon;timestamp;P1;durP1;ratioP1;P2;durP2;ratioP2
19733;SDS011;10018;51.230;7.860;2023-04-21T00:02:12;40.17;;;25.67;;
19733;SDS011;10018;51.230;7.860;2023-04-21T00:04:39;43.30;;;25.60;;
19733;SDS011;10018;51.230;7.860;2023-04-21T00:07:05;38.80;;;25.63;;
19733;SDS011;10018;51.230;7.860;2023-04-21T00:09:32;43.03;;;26.90;;
19733;SDS011;10018;51.230;7.860;2023-04-21T00:12:00;38.67;;;24.43;;
19733;SDS011;10018;51.230;7.860;2023-04-21T00:14:25;38.70;;;25.00;;
19733;SDS011;10018;51.230;7.860;2023-04-21T00:16:51;40.83;;;26.03;;
19733;SDS011;10018;51.230;7.860;2023-04-21T00:19:17;41.53;;;26.37;;
19733;SDS011;10018;51.230;7.860;2023-04-21T00:21:43;39.23;;;25.03;;
19733;SDS011;10018;51.230;7.860;2023-04-21T00:24:09;42.13;;;26.33;;
19733;SDS011;10018;51.230;7.860;2023-04-21T00:26:35;43.00;;;27.23;;
19733;SDS011;10018;51.230;7.860;2023-04-21T00:29:01;42.33;;;27.07;;
19733;SDS011;10018;51.230;7.860;2023-04-21T00:31:27;37.70;;;23.70;;
19733;SDS011;10018;51.230;7.860;2023-04-21T00:33:52;37.80;;;23.97;;
19733;SDS011;10018;51.230;7.860;2023-04-21T00:36:19;44.00;;;27.17;;
19733;SDS011;10018;51.230;7.860;2023-04-21T00:38:45;42.33;;;26.53;;
19733;SDS011;10018;51.230;7.860;2023-04-21T00:41:10;44.70;;;27.67;;
19733;SDS011;10018;51.230;7.860;2023-04-21T00:43:36;41.97;;;26.67;;
19733;SDS011;10018;51.230;7.860;2023-04-21T00:46:02;41.10;;;25.33;;
19733;SDS011;10018;51.230;7.860;2023-04-21T00:48:27;43.87;;;27.63;;
19733;SDS011;10018;51.230;7.860;2023-04-21T00:50:53;44.07;;;27.63;;
19733;SDS011;10018;51.230;7.860;2023-04-21T00:53:21;40.23;;;25.97;;
19733;SDS011;10018;51.230;7.860;2023-04-21T00:55:46;45.20;;;27.33;;
19733;SDS011;10018;51.230;7.860;2023-04-21T00:58:14;39.60;;;25.17;;
19733;SDS011;10018;51.230;7.860;2023-04-21T01:00:39;43.20;;;27.30;;
19733;SDS011;10018;51.230;7.860;2023-04-21T01:03:06;40.97;;;25.93;;
19733;SDS011;10018;51.230;7.860;2023-04-21T01:05:32;45.83;;;27.30;;
19733;SDS011;10018;51.230;7.860;2023-04-21T01:07:58;42.53;;;26.70;;
19733;SDS011;10018;51.230;7.860;2023-04-21T01:10:25;43.43;;;26.63;;
19733;SDS011;10018;51.230;7.860;2023-04-21T01:12:50;44.83;;;27.40;;
19733;SDS011;10018;51.230;7.860;2023-04-21T01:15:18;40.23;;;25.77;;
19733;SDS011;10018;51.230;7.860;2023-04-21T01:17:43;42.37;;;26.87;;
19733;SDS011;10018;51.230;7.860;2023-04-21T01:20:10;47.13;;;27.87;;
19733;SDS011;10018;51.230;7.860;2023-04-21T01:22:38;45.07;;;28.00;;
19733;SDS011;10018;51.230;7.860;2023-04-21T01:25:06;46.40;;;28.00;;
19733;SDS011;10018;51.230;7.860;2023-04-21T01:27:33;48.00;;;29.97;;
19733;SDS011;10018;51.230;7.860;2023-04-21T01:29:59;42.57;;;27.17;;
19733;SDS011;10018;51.230;7.860;2023-04-21T01:32:25;46.77;;;28.07;;
19733;SDS011;10018;51.230;7.860;2023-04-21T01:34:53;47.00;;;29.03;;
19733;SDS011;10018;51.230;7.860;2023-04-21T01:37:20;48.27;;;29.20;;
19733;SDS011;10018;51.230;7.860;2023-04-21T01:39:49;50.07;;;30.37;;
19733;SDS011;10018;51.230;7.860;2023-04-21T01:42:18;50.70;;;29.47;;
19733;SDS011;10018;51.230;7.860;2023-04-21T01:44:45;47.67;;;28.43;;
19733;SDS011;10018;51.230;7.860;2023-04-21T01:47:13;52.33;;;28.57;;
19733;SDS011;10018;51.230;7.860;2023-04-21T01:49:40;51.47;;;29.37;;
19733;SDS011;10018;51.230;7.860;2023-04-21T01:52:08;46.60;;;28.83;;
19733;SDS011;10018;51.230;7.860;2023-04-21T01:54:36;50.93;;;28.53;;
19733;SDS011;10018;51.230;7.860;2023-04-21T01:57:02;48.30;;;28.43;;
19733;SDS011;10018;51.230;7.860;2023-04-21T01:59:28;48.43;;;29.20;;
19733;SDS011;10018;51.230;7.860;2023-04-21T02:01:55;52.43;;;30.13;;
19733;SDS011;10018;51.230;7.860;2023-04-21T02:04:21;48.00;;;29.67;;
19733;SDS011;10018;51.230;7.860;2023-04-21T02:06:47;45.33;;;28.23;;
19733;SDS011;10018;51.230;7.860;2023-04-21T02:09:12;49.30;;;29.13;;
19733;SDS011;10018;51.230;7.860;2023-04-21T02:11:38;48.83;;;29.23;;
19733;SDS011;10018;51.230;7.860;2023-04-21T02:14:06;51.10;;;29.40;;
19733;SDS011;10018;51.230;7.860;2023-04-21T02:16:31;49.07;;;29.17;;
19733;SDS011;10018;51.230;7.860;2023-04-21T02:18:57;53.03;;;30.30;;
19733;SDS011;10018;51.230;7.860;2023-04-21T02:21:23;50.43;;;27.13;;
19733;SDS011;10018;51.230;7.860;2023-04-21T02:23:49;49.07;;;29.17;;
19733;SDS011;10018;51.230;7.860;2023-04-21T02:26:16;45.43;;;27.20;;
19733;SDS011;10018;51.230;7.860;2023-04-21T02:28:41;44.43;;;27.20;;
19733;SDS011;10018;51.230;7.860;2023-04-21T02:31:10;44.90;;;27.03;;
19733;SDS011;10018;51.230;7.860;2023-04-21T02:33:35;46.07;;;26.43;;
19733;SDS011;10018;51.230;7.860;2023-04-21T02:36:01;48.33;;;28.10;;
19733;SDS011;10018;51.230;7.860;2023-04-21T02:38:27;48.57;;;27.90;;
19733;SDS011;10018;51.230;7.860;2023-04-21T02:40:52;50.93;;;28.33;;
19733;SDS011;10018;51.230;7.860;2023-04-21T02:43:20;43.87;;;27.07;;
19733;SDS011;10018;51.230;7.860;2023-04-21T02:45:46;43.77;;;27.10;;
19733;SDS011;10018;51.230;7.860;2023-04-21T02:48:11;47.23;;;27.90;;
19733;SDS011;10018;51.230;7.860;2023-04-21T02:50:37;45.60;;;26.87;;
19733;SDS011;10018;51.230;7.860;2023-04-21T02:53:04;45.00;;;27.20;;
19733;SDS011;10018;51.230;7.860;2023-04-21T02:55:29;47.67;;;27.37;;
19733;SDS011;10018;51.230;7.860;2023-04-21T02:57:55;43.50;;;26.20;;
19733;SDS011;10018;51.230;7.860;2023-04-21T03:00:21;47.27;;;27.37;;
19733;SDS011;10018;51.230;7.860;2023-04-21T03:02:47;44.87;;;26.73;;
19733;SDS011;10018;51.230;7.860;2023-04-21T03:05:12;44.03;;;26.73;;
19733;SDS011;10018;51.230;7.860;2023-04-21T03:07:38;41.63;;;23.87;;
19733;SDS011;10018;51.230;7.860;2023-04-21T03:10:04;46.33;;;25.97;;
19733;SDS011;10018;51.230;7.860;2023-04-21T03:12:30;47.63;;;26.93;;
19733;SDS011;10018;51.230;7.860;2023-04-21T03:14:56;46.87;;;27.27;;
19733;SDS011;10018;51.230;7.860;2023-04-21T03:17:22;49.07;;;27.07;;
19733;SDS011;10018;51.230;7.860;2023-04-21T03:19:50;45.23;;;26.80;;
19733;SDS011;10018;51.230;7.860;2023-04-21T03:22:16;43.70;;;25.97;;
19733;SDS011;10018;51.230;7.860;2023-04-21T03:24:41;48.67;;;26.73;;
19733;SDS011;10018;51.230;7.860;2023-04-21T03:27:07;48.43;;;28.60;;
19733;SDS011;10018;51.230;7.860;2023-04-21T03:29:34;47.03;;;27.57;;
19733;SDS011;10018;51.230;7.860;2023-04-21T03:32:00;50.63;;;28.17;;
19733;SDS011;10018;51.230;7.860;2023-04-21T03:34:25;46.97;;;28.30;;
19733;SDS011;10018;51.230;7.860;2023-04-21T03:36:51;50.17;;;28.27;;
19733;SDS011;10018;51.230;7.860;2023-04-21T03:39:19;49.97;;;28.63;;
19733;SDS011;10018;51.230;7.860;2023-04-21T03:41:45;49.27;;;28.60;;
19733;SDS011;10018;51.230;7.860;2023-04-21T03:44:10;46.63;;;26.77;;
19733;SDS011;10018;51.230;7.860;2023-04-21T03:46:36;44.30;;;25.70;;
19733;SDS011;10018;51.230;7.860;2023-04-21T03:49:01;44.67;;;26.63;;
19733;SDS011;10018;51.230;7.860;2023-04-21T03:51:29;46.67;;;26.87;;
19733;SDS011;10018;51.230;7.860;2023-04-21T03:53:56;45.53;;;26.97;;
19733;SDS011;10018;51.230;7.860;2023-04-21T03:56:22;39.97;;;24.37;;
19733;SDS011;10018;51.230;7.860;2023-04-21T03:58:47;45.73;;;25.60;;
19733;SDS011;10018;51.230;7.860;2023-04-21T04:01:13;43.57;;;26.20;;
19733;SDS011;10018;51.230;7.860;2023-04-21T04:03:39;42.50;;;24.80;;
19733;SDS011;10018;51.230;7.860;2023-04-21T04:06:05;37.73;;;23.33;;
19733;SDS011;10018;51.230;7.860;2023-04-21T04:08:31;44.03;;;24.93;;
19733;SDS011;10018;51.230;7.860;2023-04-21T04:10:56;47.60;;;27.00;;
19733;SDS011;10018;51.230;7.860;2023-04-21T04:13:22;44.13;;;26.40;;
19733;SDS011;10018;51.230;7.860;2023-04-21T04:15:50;45.70;;;25.43;;
19733;SDS011;10018;51.230;7.860;2023-04-21T04:18:18;49.47;;;28.03;;
19733;SDS011;10018;51.230;7.860;2023-04-21T04:20:43;44.70;;;26.47;;
19733;SDS011;10018;51.230;7.860;2023-04-21T04:23:09;49.13;;;28.27;;
19733;SDS011;10018;51.230;7.860;2023-04-21T04:25:35;49.30;;;27.97;;
19733;SDS011;10018;51.230;7.860;2023-04-21T04:28:01;48.23;;;27.73;;
19733;SDS011;10018;51.230;7.860;2023-04-21T04:30:29;44.87;;;26.30;;
19733;SDS011;10018;51.230;7.860;2023-04-21T04:32:57;45.23;;;27.30;;
19733;SDS011;10018;51.230;7.860;2023-04-21T04:35:22;47.63;;;27.63;;
19733;SDS011;10018;51.230;7.860;2023-04-21T04:37:50;42.77;;;26.73;;
19733;SDS011;10018;51.230;7.860;2023-04-21T04:40:17;45.03;;;26.00;;
19733;SDS011;10018;51.230;7.860;2023-04-21T04:42:43;45.27;;;27.67;;
19733;SDS011;10018;51.230;7.860;2023-04-21T04:45:10;45.13;;;27.37;;
19733;SDS011;10018;51.230;7.860;2023-04-21T04:47:37;47.37;;;27.53;;
19733;SDS011;10018;51.230;7.860;2023-04-21T04:50:04;47.40;;;27.63;;
19733;SDS011;10018;51.230;7.860;2023-04-21T04:52:30;48.87;;;28.73;;
19733;SDS011;10018;51.230;7.860;2023-04-21T04:54:56;47.70;;;29.00;;
19733;SDS011;10018;51.230;7.860;2023-04-21T04:57:23;47.70;;;28.20;;
19733;SDS011;10018;51.230;7.860;2023-04-21T04:59:53;48.53;;;28.97;;
19733;SDS011;10018;51.230;7.860;2023-04-21T05:02:20;49.50;;;28.97;;
19733;SDS011;10018;51.230;7.860;2023-04-21T05:04:47;49.50;;;28.80;;
19733;SDS011;10018;51.230;7.860;2023-04-21T05:07:13;48.80;;;28.93;;
19733;SDS011;10018;51.230;7.860;2023-04-21T05:09:44;52.23;;;28.97;;
19733;SDS011;10018;51.230;7.860;2023-04-21T05:12:10;52.67;;;29.33;;
19733;SDS011;10018;51.230;7.860;2023-04-21T05:14:35;47.90;;;28.23;;
19733;SDS011;10018;51.230;7.860;2023-04-21T05:17:01;51.03;;;29.87;;
19733;SDS011;10018;51.230;7.860;2023-04-21T05:19:29;49.93;;;28.00;;
19733;SDS011;10018;51.230;7.860;2023-04-21T05:21:58;51.47;;;30.30;;
19733;SDS011;10018;51.230;7.860;2023-04-21T05:24:26;54.33;;;30.13;;
19733;SDS011;10018;51.230;7.860;2023-04-21T05:26:51;51.33;;;28.43;;
19733;SDS011;10018;51.230;7.860;2023-04-21T05:29:17;51.67;;;29.97;;
19733;SDS011;10018;51.230;7.860;2023-04-21T05:31:42;45.63;;;26.77;;
19733;SDS011;10018;51.230;7.860;2023-04-21T05:34:10;43.33;;;25.97;;
19733;SDS011;10018;51.230;7.860;2023-04-21T05:36:41;45.87;;;26.87;;
19733;SDS011;10018;51.230;7.860;2023-04-21T05:39:07;48.73;;;29.13;;
19733;SDS011;10018;51.230;7.860;2023-04-21T05:41:33;50.33;;;28.73;;
19733;SDS011;10018;51.230;7.860;2023-04-21T05:44:01;53.37;;;30.70;;
19733;SDS011;10018;51.230;7.860;2023-04-21T05:46:26;55.90;;;33.17;;
19733;SDS011;10018;51.230;7.860;2023-04-21T05:48:54;53.47;;;31.73;;
19733;SDS011;10018;51.230;7.860;2023-04-21T05:51:21;48.87;;;29.17;;
19733;SDS011;10018;51.230;7.860;2023-04-21T05:53:47;49.30;;;30.20;;
19733;SDS011;10018;51.230;7.860;2023-04-21T05:56:13;51.23;;;29.97;;
19733;SDS011;10018;51.230;7.860;2023-04-21T05:58:38;49.63;;;28.73;;
19733;SDS011;10018;51.230;7.860;2023-04-21T06:01:04;49.40;;;28.73;;
19733;SDS011;10018;51.230;7.860;2023-04-21T06:03:30;54.20;;;31.10;;
19733;SDS011;10018;51.230;7.860;2023-04-21T06:05:59;53.17;;;30.77;;
19733;SDS011;10018;51.230;7.860;2023-04-21T06:08:26;51.07;;;29.70;;
19733;SDS011;10018;51.230;7.860;2023-04-21T06:10:51;48.63;;;29.80;;
19733;SDS011;10018;51.230;7.860;2023-04-21T06:13:17;49.17;;;31.13;;
19733;SDS011;10018;51.230;7.860;2023-04-21T06:15:43;44.70;;;27.90;;
19733;SDS011;10018;51.230;7.860;2023-04-21T06:18:08;52.43;;;32.30;;
19733;SDS011;10018;51.230;7.860;2023-04-21T06:20:34;55.87;;;33.87;;
19733;SDS011;10018;51.230;7.860;2023-04-21T06:23:00;47.97;;;29.90;;
19733;SDS011;10018;51.230;7.860;2023-04-21T06:25:25;56.20;;;35.03;;
19733;SDS011;10018;51.230;7.860;2023-04-21T06:27:51;56.10;;;35.30;;
19733;SDS011;10018;51.230;7.860;2023-04-21T06:30:16;66.63;;;40.70;;
19733;SDS011;10018;51.230;7.860;2023-04-21T06:32:42;69.23;;;40.57;;
19733;SDS011;10018;51.230;7.860;2023-04-21T06:35:12;72.03;;;42.60;;
19733;SDS011;10018;51.230;7.860;2023-04-21T06:37:39;52.70;;;32.73;;
19733;SDS011;10018;51.230;7.860;2023-04-21T06:40:10;49.00;;;31.30;;
19733;SDS011;10018;51.230;7.860;2023-04-21T06:42:38;51.90;;;30.00;;
19733;SDS011;10018;51.230;7.860;2023-04-21T06:45:03;53.53;;;31.33;;
19733;SDS011;10018;51.230;7.860;2023-04-21T06:47:31;52.33;;;30.10;;
19733;SDS011;10018;51.230;7.860;2023-04-21T06:49:56;47.67;;;29.90;;
19733;SDS011;10018;51.230;7.860;2023-04-21T06:52:24;49.63;;;29.97;;
19733;SDS011;10018;51.230;7.860;2023-04-21T06:54:50;47.10;;;28.60;;
19733;SDS011;10018;51.230;7.860;2023-04-21T06:57:16;51.83;;;30.50;;
19733;SDS011;10018;51.230;7.860;2023-04-21T06:59:41;51.00;;;30.30;;
19733;SDS011;10018;51.230;7.860;2023-04-21T07:02:07;49.13;;;30.37;;
19733;SDS011;10018;51.230;7.860;2023-04-21T07:04:33;48.10;;;29.07;;
19733;SDS011;10018;51.230;7.860;2023-04-21T07:06:59;46.57;;;29.53;;
19733;SDS011;10018;51.230;7.860;2023-04-21T07:09:26;46.53;;;29.37;;
19733;SDS011;10018;51.230;7.860;2023-04-21T07:11:57;49.93;;;28.57;;
19733;SDS011;10018;51.230;7.860;2023-04-21T07:14:23;50.57;;;30.80;;
19733;SDS011;10018;51.230;7.860;2023-04-21T07:16:49;53.00;;;30.70;;
19733;SDS011;10018;51.230;7.860;2023-04-21T07:19:15;48.57;;;29.83;;
19733;SDS011;10018;51.230;7.860;2023-04-21T07:21:40;48.00;;;30.30;;
19733;SDS011;10018;51.230;7.860;2023-04-21T07:24:06;48.47;;;29.33;;
19733;SDS011;10018;51.230;7.860;2023-04-21T07:26:31;46.07;;;29.13;;
19733;SDS011;10018;51.230;7.860;2023-04-21T07:28:59;48.20;;;28.30;;
19733;SDS011;10018;51.230;7.860;2023-04-21T07:31:25;48.77;;;29.63;;
19733;SDS011;10018;51.230;7.860;2023-04-21T07:33:51;47.20;;;30.37;;
19733;SDS011;10018;51.230;7.860;2023-04-21T07:36:16;47.30;;;29.33;;
19733;SDS011;10018;51.230;7.860;2023-04-21T07:38:42;45.23;;;28.70;;
19733;SDS011;10018;51.230;7.860;2023-04-21T07:41:11;47.63;;;29.70;;
19733;SDS011;10018;51.230;7.860;2023-04-21T07:43:37;45.03;;;28.10;;
19733;SDS011;10018;51.230;7.860;2023-04-21T07:46:03;48.47;;;29.83;;
19733;SDS011;10018;51.230;7.860;2023-04-21T07:48:31;47.43;;;29.87;;
19733;SDS011;10018;51.230;7.860;2023-04-21T07:50:57;49.27;;;30.83;;
19733;SDS011;10018;51.230;7.860;2023-04-21T07:53:24;46.67;;;30.17;;
19733;SDS011;10018;51.230;7.860;2023-04-21T07:55:50;49.63;;;30.60;;
19733;SDS011;10018;51.230;7.860;2023-04-21T07:58:16;48.37;;;30.27;;
19733;SDS011;10018;51.230;7.860;2023-04-21T08:00:41;48.97;;;29.80;;
19733;SDS011;10018;51.230;7.860;2023-04-21T08:03:07;47.50;;;30.33;;
19733;SDS011;10018;51.230;7.860;2023-04-21T08:05:33;48.83;;;30.17;;
19733;SDS011;10018;51.230;7.860;2023-04-21T08:07:58;47.43;;;30.23;;
19733;SDS011;10018;51.230;7.860;2023-04-21T08:10:24;48.43;;;31.77;;
19733;SDS011;10018;51.230;7.860;2023-04-21T08:12:50;47.47;;;30.10;;
19733;SDS011;10018;51.230;7.860;2023-04-21T08:15:15;49.30;;;30.63;;
19733;SDS011;10018;51.230;7.860;2023-04-21T08:17:41;46.37;;;30.60;;
19733;SDS011;10018;51.230;7.860;2023-04-21T08:20:07;45.87;;;29.50;;
19733;SDS011;10018;51.230;7.860;2023-04-21T08:22:33;45.53;;;29.50;;
19733;SDS011;10018;51.230;7.860;2023-04-21T08:25:02;49.37;;;30.70;;
19733;SDS011;10018;51.230;7.860;2023-04-21T08:27:28;49.93;;;31.53;;
19733;SDS011;10018;51.230;7.860;2023-04-21T08:29:54;51.53;;;32.13;;
19733;SDS011;10018;51.230;7.860;2023-04-21T08:32:20;51.23;;;32.00;;
19733;SDS011;10018;51.230;7.860;2023-04-21T08:34:48;51.43;;;32.03;;
19733;SDS011;10018;51.230;7.860;2023-04-21T08:37:16;44.17;;;28.77;;
19733;SDS011;10018;51.230;7.860;2023-04-21T08:39:42;47.10;;;30.80;;
19733;SDS011;10018;51.230;7.860;2023-04-21T08:42:08;46.33;;;30.00;;
19733;SDS011;10018;51.230;7.860;2023-04-21T08:44:34;48.40;;;30.50;;
19733;SDS011;10018;51.230;7.860;2023-04-21T08:47:01;51.57;;;32.00;;
19733;SDS011;10018;51.230;7.860;2023-04-21T08:49:29;48.23;;;30.77;;
19733;SDS011;10018;51.230;7.860;2023-04-21T08:51:55;48.03;;;29.97;;
19733;SDS011;10018;51.230;7.860;2023-04-21T08:54:21;46.57;;;30.53;;
19733;SDS011;10018;51.230;7.860;2023-04-21T08:56:47;47.00;;;30.63;;
19733;SDS011;10018;51.230;7.860;2023-04-21T08:59:13;48.97;;;30.63;;
19733;SDS011;10018;51.230;7.860;2023-04-21T09:04:33;47.20;;;30.73;;
19733;SDS011;10018;51.230;7.860;2023-04-21T09:07:02;48.13;;;29.80;;
19733;SDS011;10018;51.230;7.860;2023-04-21T09:09:27;47.37;;;30.13;;
19733;SDS011;10018;51.230;7.860;2023-04-21T09:11:56;46.57;;;30.37;;
19733;SDS011;10018;51.230;7.860;2023-04-21T09:14:31;45.83;;;29.30;;
19733;SDS011;10018;51.230;7.860;2023-04-21T09:17:01;44.57;;;29.80;;
19733;SDS011;10018;51.230;7.860;2023-04-21T09:19:32;42.77;;;27.50;;
19733;SDS011;10018;51.230;7.860;2023-04-21T09:21:59;42.67;;;27.83;;
19733;SDS011;10018;51.230;7.860;2023-04-21T09:24:25;40.53;;;27.77;;
19733;SDS011;10018;51.230;7.860;2023-04-21T09:26:51;44.10;;;28.17;;
19733;SDS011;10018;51.230;7.860;2023-04-21T09:29:24;45.33;;;29.30;;
19733;SDS011;10018;51.230;7.860;2023-04-21T09:31:52;41.13;;;28.13;;
19733;SDS011;10018;51.230;7.860;2023-04-21T09:34:18;43.10;;;27.60;;
19733;SDS011;10018;51.230;7.860;2023-04-21T09:36:48;42.10;;;27.53;;
19733;SDS011;10018;51.230;7.860;2023-04-21T09:39:30;42.30;;;27.27;;
19733;SDS011;10018;51.230;7.860;2023-04-21T09:41:59;41.33;;;27.43;;
19733;SDS011;10018;51.230;7.860;2023-04-21T09:44:27;39.27;;;27.17;;
19733;SDS011;10018;51.230;7.860;2023-04-21T09:46:57;37.47;;;25.40;;
19733;SDS011;10018;51.230;7.860;2023-04-21T09:49:30;38.10;;;24.07;;
19733;SDS011;10018;51.230;7.860;2023-04-21T09:52:00;40.90;;;28.10;;
19733;SDS011;10018;51.230;7.860;2023-04-21T09:54:29;36.03;;;24.00;;
19733;SDS011;10018;51.230;7.860;2023-04-21T09:56:59;34.10;;;23.67;;
19733;SDS011;10018;51.230;7.860;2023-04-21T09:59:36;33.53;;;22.60;;
19733;SDS011;10018;51.230;7.860;2023-04-21T10:02:05;33.13;;;22.77;;
19733;SDS011;10018;51.230;7.860;2023-04-21T10:04:32;47.37;;;30.70;;
19733;SDS011;10018;51.230;7.860;2023-04-21T10:06:59;39.47;;;23.07;;
19733;SDS011;10018;51.230;7.860;2023-04-21T10:09:26;34.37;;;22.63;;
19733;SDS011;10018;51.230;7.860;2023-04-21T10:12:15;42.47;;;28.10;;
19733;SDS011;10018;51.230;7.860;2023-04-21T10:14:43;37.27;;;26.53;;
19733;SDS011;10018;51.230;7.860;2023-04-21T10:17:09;35.43;;;24.67;;
19733;SDS011;10018;51.230;7.860;2023-04-21T10:19:35;32.80;;;23.17;;
19733;SDS011;10018;51.230;7.860;2023-04-21T10:22:12;36.10;;;23.50;;
19733;SDS011;10018;51.230;7.860;2023-04-21T10:24:38;35.15;;;24.02;;
19733;SDS011;10018;51.230;7.860;2023-04-21T10:27:10;34.13;;;22.53;;
19733;SDS011;10018;51.230;7.860;2023-04-21T10:29:37;32.10;;;21.77;;
19733;SDS011;10018;51.230;7.860;2023-04-21T10:32:02;31.20;;;21.30;;
19733;SDS011;10018;51.230;7.860;2023-04-21T10:39:36;37.17;;;27.10;;
19733;SDS011;10018;51.230;7.860;2023-04-21T10:42:19;29.83;;;20.67;;
19733;SDS011;10018;51.230;7.860;2023-04-21T10:47:39;30.73;;;20.63;;
19733;SDS011;10018;51.230;7.860;2023-04-21T10:53:06;32.27;;;20.33;;
19733;SDS011;10018;51.230;7.860;2023-04-21T10:55:36;28.00;;;19.70;;
19733;SDS011;10018;51.230;7.860;2023-04-21T10:58:03;29.77;;;18.67;;
19733;SDS011;10018;51.230;7.860;2023-04-21T11:00:34;28.57;;;18.67;;
19733;SDS011;10018;51.230;7.860;2023-04-21T11:03:03;30.30;;;19.63;;
19733;SDS011;10018;51.230;7.860;2023-04-21T11:05:39;25.47;;;18.57;;
19733;SDS011;10018;51.230;7.860;2023-04-21T11:08:10;27.23;;;18.77;;
19733;SDS011;10018;51.230;7.860;2023-04-21T11:13:14;25.93;;;17.83;;
19733;SDS011;10018;51.230;7.860;2023-04-21T11:15:40;28.30;;;19.10;;
19733;SDS011;10018;51.230;7.860;2023-04-21T11:18:06;28.87;;;18.17;;
19733;SDS011;10018;51.230;7.860;2023-04-21T11:20:33;25.43;;;17.63;;
19733;SDS011;10018;51.230;7.860;2023-04-21T11:23:03;28.60;;;20.10;;
19733;SDS011;10018;51.230;7.860;2023-04-21T11:25:29;28.83;;;18.23;;
19733;SDS011;10018;51.230;7.860;2023-04-21T11:27:55;27.17;;;18.10;;
19733;SDS011;10018;51.230;7.860;2023-04-21T11:30:29;27.03;;;18.67;;
19733;SDS011;10018;51.230;7.860;2023-04-21T11:32:58;24.53;;;17.23;;
19733;SDS011;10018;51.230;7.860;2023-04-21T11:35:24;29.27;;;18.47;;
19733;SDS011;10018;51.230;7.860;2023-04-21T11:37:50;25.90;;;17.40;;
19733;SDS011;10018;51.230;7.860;2023-04-21T11:40:18;25.40;;;17.40;;
19733;SDS011;10018;51.230;7.860;2023-04-21T11:42:46;24.77;;;16.80;;
19733;SDS011;10018;51.230;7.860;2023-04-21T11:45:15;25.00;;;16.87;;
19733;SDS011;10018;51.230;7.860;2023-04-21T11:47:42;24.57;;;16.53;;
19733;SDS011;10018;51.230;7.860;2023-04-21T11:50:11;24.00;;;16.07;;
19733;SDS011;10018;51.230;7.860;2023-04-21T11:52:57;25.47;;;16.33;;
19733;SDS011;10018;51.230;7.860;2023-04-21T11:55:22;26.37;;;16.23;;
19733;SDS011;10018;51.230;7.860;2023-04-21T11:57:48;25.53;;;17.50;;
19733;SDS011;10018;51.230;7.860;2023-04-21T12:00:15;23.83;;;16.60;;
19733;SDS011;10018;51.230;7.860;2023-04-21T12:02:41;22.93;;;15.53;;
19733;SDS011;10018;51.230;7.860;2023-04-21T12:05:11;19.83;;;15.27;;
19733;SDS011;10018;51.230;7.860;2023-04-21T12:07:42;24.77;;;15.77;;
19733;SDS011;10018;51.230;7.860;2023-04-21T12:10:11;27.67;;;16.27;;
19733;SDS011;10018;51.230;7.860;2023-04-21T12:12:37;22.60;;;14.53;;
19733;SDS011;10018;51.230;7.860;2023-04-21T12:15:07;20.47;;;14.53;;
19733;SDS011;10018;51.230;7.860;2023-04-21T12:20:06;35.80;;;22.70;;
19733;SDS011;10018;51.230;7.860;2023-04-21T12:22:32;19.73;;;13.67;;
19733;SDS011;10018;51.230;7.860;2023-04-21T12:24:58;20.77;;;13.77;;
19733;SDS011;10018;51.230;7.860;2023-04-21T12:27:25;21.37;;;15.00;;
19733;SDS011;10018;51.230;7.860;2023-04-21T12:29:51;23.23;;;15.13;;
19733;SDS011;10018;51.230;7.860;2023-04-21T12:32:16;19.03;;;13.90;;
19733;SDS011;10018;51.230;7.860;2023-04-21T12:34:42;20.13;;;14.57;;
19733;SDS011;10018;51.230;7.860;2023-04-21T12:37:07;19.83;;;13.97;;
19733;SDS011;10018;51.230;7.860;2023-04-21T12:39:33;19.90;;;14.27;;
19733;SDS011;10018;51.230;7.860;2023-04-21T12:41:59;22.00;;;13.60;;
19733;SDS011;10018;51.230;7.860;2023-04-21T12:44:25;18.87;;;14.47;;
19733;SDS011;10018;51.230;7.860;2023-04-21T12:46:53;18.80;;;12.83;;
19733;SDS011;10018;51.230;7.860;2023-04-21T12:49:19;18.23;;;12.83;;
19733;SDS011;10018;51.230;7.860;2023-04-21T12:51:44;18.03;;;12.57;;
19733;SDS011;10018;51.230;7.860;2023-04-21T12:54:11;16.87;;;12.00;;
19733;SDS011;10018;51.230;7.860;2023-04-21T12:56:37;17.43;;;12.00;;
19733;SDS011;10018;51.230;7.860;2023-04-21T12:59:06;18.67;;;12.60;;
19733;SDS011;10018;51.230;7.860;2023-04-21T13:01:32;21.47;;;12.50;;
19733;SDS011;10018;51.230;7.860;2023-04-21T13:03:58;16.33;;;12.40;;
19733;SDS011;10018;51.230;7.860;2023-04-21T13:06:23;19.40;;;12.57;;
19733;SDS011;10018;51.230;7.860;2023-04-21T13:08:50;15.97;;;12.07;;
19733;SDS011;10018;51.230;7.860;2023-04-21T13:11:15;19.00;;;11.80;;
19733;SDS011;10018;51.230;7.860;2023-04-21T13:13:41;16.77;;;12.13;;
19733;SDS011;10018;51.230;7.860;2023-04-21T13:16:09;17.23;;;12.03;;
19733;SDS011;10018;51.230;7.860;2023-04-21T13:18:34;16.17;;;12.37;;
19733;SDS011;10018;51.230;7.860;2023-04-21T13:21:01;17.93;;;10.97;;
19733;SDS011;10018;51.230;7.860;2023-04-21T13:23:27;17.63;;;11.60;;
19733;SDS011;10018;51.230;7.860;2023-04-21T13:25:52;16.57;;;11.80;;
19733;SDS011;10018;51.230;7.860;2023-04-21T13:28:20;16.40;;;11.20;;
19733;SDS011;10018;51.230;7.860;2023-04-21T13:30:46;17.10;;;12.90;;
19733;SDS011;10018;51.230;7.860;2023-04-21T13:33:12;18.00;;;11.50;;
19733;SDS011;10018;51.230;7.860;2023-04-21T13:35:38;15.57;;;11.57;;
19733;SDS011;10018;51.230;7.860;2023-04-21T13:38:04;16.30;;;10.93;;
19733;SDS011;10018;51.230;7.860;2023-04-21T13:40:30;18.20;;;10.90;;
19733;SDS011;10018;51.230;7.860;2023-04-21T13:42:55;15.77;;;10.83;;
19733;SDS011;10018;51.230;7.860;2023-04-21T13:45:22;13.80;;;10.67;;
19733;SDS011;10018;51.230;7.860;2023-04-21T13:47:48;15.73;;;10.73;;
19733;SDS011;10018;51.230;7.860;2023-04-21T13:50:15;17.27;;;10.30;;
19733;SDS011;10018;51.230;7.860;2023-04-21T13:52:41;18.07;;;11.17;;
19733;SDS011;10018;51.230;7.860;2023-04-21T13:55:06;14.93;;;10.97;;
19733;SDS011;10018;51.230;7.860;2023-04-21T13:57:32;16.60;;;11.40;;
19733;SDS011;10018;51.230;7.860;2023-04-21T13:59:58;15.80;;;11.10;;
19733;SDS011;10018;51.230;7.860;2023-04-21T14:02:23;14.00;;;10.80;;
19733;SDS011;10018;51.230;7.860;2023-04-21T14:04:49;15.20;;;11.20;;
19733;SDS011;10018;51.230;7.860;2023-04-21T14:07:16;15.80;;;10.57;;
19733;SDS011;10018;51.230;7.860;2023-04-21T14:09:43;17.17;;;11.10;;
19733;SDS011;10018;51.230;7.860;2023-04-21T14:12:10;18.60;;;11.17;;
19733;SDS011;10018;51.230;7.860;2023-04-21T14:14:35;15.77;;;10.50;;
19733;SDS011;10018;51.230;7.860;2023-04-21T14:17:01;13.73;;;10.27;;
19733;SDS011;10018;51.230;7.860;2023-04-21T14:19:27;15.40;;;10.43;;
19733;SDS011;10018;51.230;7.860;2023-04-21T14:21:53;16.10;;;10.80;;
19733;SDS011;10018;51.230;7.860;2023-04-21T14:24:21;14.57;;;10.33;;
19733;SDS011;10018;51.230;7.860;2023-04-21T14:26:47;15.73;;;10.23;;
19733;SDS011;10018;51.230;7.860;2023-04-21T14:29:12;13.90;;;10.43;;
19733;SDS011;10018;51.230;7.860;2023-04-21T14:31:38;15.60;;;10.73;;
19733;SDS011;10018;51.230;7.860;2023-04-21T14:34:03;17.33;;;11.30;;
19733;SDS011;10018;51.230;7.860;2023-04-21T14:36:29;17.13;;;10.57;;
19733;SDS011;10018;51.230;7.860;2023-04-21T14:38:55;12.67;;;10.13;;